Portada
METAR-TAF:

METAR-TAF

Aeropuertos :

Aeropuerto de Huesca-Pirineos

Huesca, España

latitud: 42-04-32N, longitud: 0-18-58W, altitud: 539 m

Observación

El informe se hizo hace 15 minutos, a las 01:30 UTC
Viento 4 kt del este
Temperatura 7°C
Humedad 87%
Presión 1026 hPa
Visibilidad 10 km o más
Nubes dispersas a una altura de 2100 ft

METAR: LEHC 020130Z AUTO 09004KT 9999 SCT021 07/05 Q1026

Hora: 02:45 (01:45 UTC)

Pronóstico

El informe se hizo hace 11 horas y 45 minutos, a las 14:00 UTC
Pronóstico válido del 01 a las 15 UTC al 02 a las 15 UTC
Viento 10 kt del este
Visibilidad 10 km o más
Escasas nubes a una altura de 2000 ft
Nubes dispersas a una altura de 3000 ft

TAF: LEHC 011400Z 0115/0215 10010KT 9999 FEW020 SCT030 TX15/0214Z TN06/0206Z

Observaciones y pronósticos meteorológicos de más de 4000 aeropuertos (mensajes METAR y TAF).

Los puntos amarillos y rojos representan las estaciones disponibles.

Ponga el ratón en el punto deseado para ver el nombre de la estación.

Haga clic para ver las observaciones y los pronósticos meteorológicos.

Para cambiar el mapa : haga clic en los botones verdes con una cruz de color negro para hacer un zoom, en el botón verde con un guión para alejar o en las flechas verdes para mapas adyacentes.


METAR-TAF: